Time;durP1;ratioP1;P1;durP2;ratioP2;P2;SDS_P1;SDS_P2;PMS_P1;PMS_P2;Temp;Humidity;BMP_temperature;BMP_pressure;BME280_temperature;BME280_humidity;BME280_pressure;Samples;Min_cycle;Max_cycle;Signal;HPM_P1;HPM_P2
2022/06/13 00:00:36;;;;;;;7.23;3.20;;;17.50;99.90;;;;;;5101996;28;20452;-91
2022/06/13 00:03:03;;;;;;;4.70;2.90;;;17.50;99.90;;;;;;5098871;28;20483;-90
2022/06/13 00:05:30;;;;;;;11.80;3.13;;;17.50;99.90;;;;;;5121466;28;20441;-88
2022/06/13 00:07:56;;;;;;;4.07;2.90;;;17.40;99.90;;;;;;5122623;28;20409;-88
2022/06/13 00:10:23;;;;;;;5.63;3.20;;;17.40;99.90;;;;;;5120632;28;20439;-88
2022/06/13 00:12:51;;;;;;;7.67;2.93;;;17.30;99.90;;;;;;5120490;28;20421;-89
2022/06/13 00:15:17;;;;;;;5.60;3.03;;;17.30;99.90;;;;;;5120242;28;20458;-87
2022/06/13 00:17:46;;;;;;;7.83;3.33;;;17.30;99.90;;;;;;5117477;28;20443;-89
2022/06/13 00:20:14;;;;;;;6.97;3.17;;;17.30;99.90;;;;;;5104284;28;20464;-89
2022/06/13 00:22:41;;;;;;;5.50;2.77;;;17.20;99.90;;;;;;5110312;28;20474;-89
2022/06/13 00:25:09;;;;;;;10.80;3.27;;;17.20;99.90;;;;;;5104655;28;20450;-89
2022/06/13 00:27:36;;;;;;;9.70;3.10;;;17.20;99.90;;;;;;5104502;28;20499;-89
2022/06/13 00:30:04;;;;;;;14.50;3.93;;;17.10;99.90;;;;;;5104938;28;20435;-89
2022/06/13 00:32:30;;;;;;;6.47;3.30;;;17.00;99.90;;;;;;5104516;28;20474;-90
2022/06/13 00:34:59;;;;;;;8.07;4.07;;;17.10;99.90;;;;;;5083919;28;20445;-89
2022/06/13 00:37:26;;;;;;;12.93;3.50;;;16.80;99.90;;;;;;5089448;28;20454;-89
2022/06/13 00:39:52;;;;;;;11.70;3.63;;;16.80;99.90;;;;;;5106222;28;20807;-89
2022/06/13 00:42:22;;;;;;;7.07;3.40;;;16.70;99.90;;;;;;5105006;28;20454;-89
2022/06/13 00:45:10;;;;;;;10.77;3.43;;;16.80;99.90;;;;;;5103929;28;20807;-89
2022/06/13 00:47:38;;;;;;;5.40;3.20;;;16.60;99.90;;;;;;5113127;28;20871;-89
2022/06/13 00:50:09;;;;;;;10.80;3.33;;;16.50;99.90;;;;;;5109662;28;20432;-88
2022/06/13 00:52:41;;;;;;;9.63;3.30;;;16.50;99.90;;;;;;5107123;28;20451;-89
2022/06/13 00:55:11;;;;;;;6.60;3.20;;;16.40;99.90;;;;;;5105675;28;20447;-89
2022/06/13 00:57:38;;;;;;;4.77;3.00;;;16.40;99.90;;;;;;5106194;28;20429;-88
2022/06/13 01:00:11;;;;;;;8.20;3.53;;;16.30;99.90;;;;;;5105754;28;20498;-89
2022/06/13 01:02:40;;;;;;;9.67;3.60;;;16.30;99.90;;;;;;5108926;28;20545;-89
2022/06/13 01:05:09;;;;;;;8.23;3.40;;;16.20;99.90;;;;;;5113120;28;20451;-89
2022/06/13 01:07:37;;;;;;;10.00;3.53;;;16.10;99.90;;;;;;5102567;28;20440;-88
2022/06/13 01:12:50;;;;;;;6.33;3.30;;;16.00;99.90;;;;;;5103311;28;20416;-88
2022/06/13 01:15:30;;;;;;;8.23;3.77;;;16.00;99.90;;;;;;5105391;28;20425;-90
2022/06/13 01:18:10;;;;;;;9.17;4.20;;;15.90;99.90;;;;;;5104647;28;20447;-90
2022/06/13 01:20:59;;;;;;;9.27;3.50;;;15.90;99.90;;;;;;5110016;28;20970;-89
2022/06/13 01:24:14;;;;;;;10.97;4.10;;;15.90;99.90;;;;;;5102342;28;20438;-90
2022/06/13 01:27:28;;;;;;;7.50;3.40;;;15.80;99.90;;;;;;5108140;28;20461;-89
2022/06/13 01:30:37;;;;;;;11.43;3.80;;;15.80;99.90;;;;;;5097728;28;20421;-90
2022/06/13 01:33:13;;;;;;;8.00;3.57;;;15.70;99.90;;;;;;5054079;28;20480;-88
2022/06/13 01:35:49;;;;;;;10.53;3.70;;;15.70;99.90;;;;;;5138938;28;20439;-88
2022/06/13 01:38:35;;;;;;;11.27;3.40;;;15.70;99.90;;;;;;5115534;28;20425;-90
2022/06/13 01:41:09;;;;;;;4.50;3.00;;;15.60;99.90;;;;;;5114488;28;20469;-88
2022/06/13 01:43:48;;;;;;;8.07;3.77;;;15.60;99.90;;;;;;5117788;28;20442;-89
2022/06/13 01:46:23;;;;;;;7.20;3.60;;;15.60;99.90;;;;;;5116017;28;20469;-88
2022/06/13 01:48:58;;;;;;;9.40;3.50;;;15.50;99.90;;;;;;5104728;28;20414;-89
2022/06/13 01:51:29;;;;;;;6.67;2.93;;;15.40;99.90;;;;;;5103213;28;20811;-89
2022/06/13 01:54:05;;;;;;;8.67;3.40;;;15.40;99.90;;;;;;5104264;28;20437;-90
2022/06/13 01:56:37;;;;;;;6.90;3.87;;;15.30;99.90;;;;;;5106620;28;20460;-89
2022/06/13 01:59:14;;;;;;;10.97;3.60;;;15.30;99.90;;;;;;5106172;28;20442;-89
2022/06/13 02:01:44;;;;;;;8.43;3.13;;;15.20;99.90;;;;;;5113324;28;20447;-89
2022/06/13 02:04:17;;;;;;;6.63;3.50;;;15.10;99.90;;;;;;5117445;28;20425;-89
2022/06/13 02:06:49;;;;;;;6.90;3.20;;;15.10;99.90;;;;;;5102667;28;20430;-89
2022/06/13 02:09:21;;;;;;;9.97;3.90;;;15.10;99.90;;;;;;5096306;28;20435;-89
2022/06/13 02:11:50;;;;;;;7.23;3.73;;;15.10;99.90;;;;;;5096449;28;20765;-89
2022/06/13 02:14:21;;;;;;;10.80;3.83;;;15.00;99.90;;;;;;5098057;28;20454;-89
2022/06/13 02:16:54;;;;;;;8.97;3.60;;;15.00;99.90;;;;;;5103612;28;20449;-90
2022/06/13 02:19:29;;;;;;;8.60;3.07;;;15.00;99.90;;;;;;5100555;28;20462;-88
2022/06/13 02:22:00;;;;;;;15.13;3.50;;;14.90;99.90;;;;;;5102743;28;20488;-88
2022/06/13 02:24:34;;;;;;;6.47;3.07;;;14.90;99.90;;;;;;5102359;28;20477;-89
2022/06/13 02:27:03;;;;;;;7.10;3.17;;;14.80;99.90;;;;;;5101300;28;20553;-88
2022/06/13 02:29:38;;;;;;;8.17;2.73;;;14.80;99.90;;;;;;5103141;28;20463;-89
2022/06/13 02:32:09;;;;;;;8.07;2.83;;;14.70;99.90;;;;;;5108934;28;20409;-87
2022/06/13 02:34:42;;;;;;;5.80;3.03;;;14.70;99.90;;;;;;5099599;28;21370;-88
2022/06/13 02:37:12;;;;;;;4.33;3.30;;;14.60;99.90;;;;;;5113669;28;20455;-89
2022/06/13 02:39:44;;;;;;;6.40;3.30;;;14.60;99.90;;;;;;5105272;28;20485;-89
2022/06/13 02:42:14;;;;;;;7.40;3.47;;;14.60;99.90;;;;;;5103709;28;20449;-88
2022/06/13 02:44:44;;;;;;;8.13;3.63;;;14.50;99.90;;;;;;5103142;28;20450;-89
2022/06/13 02:47:15;;;;;;;9.87;3.33;;;14.50;99.90;;;;;;5115591;28;20447;-88
2022/06/13 02:49:47;;;;;;;7.37;2.93;;;14.50;99.90;;;;;;5110576;28;20437;-88
2022/06/13 02:52:19;;;;;;;5.90;3.00;;;14.50;99.90;;;;;;5110615;28;20443;-90
2022/06/13 02:54:50;;;;;;;6.20;3.13;;;14.50;99.90;;;;;;5107567;28;20447;-89
2022/06/13 02:57:35;;;;;;;8.27;3.50;;;14.40;99.90;;;;;;5105363;28;20478;-90
2022/06/13 03:00:28;;;;;;;6.93;3.23;;;14.40;99.90;;;;;;5104778;28;20478;-90
2022/06/13 03:03:12;;;;;;;7.47;3.37;;;14.40;99.90;;;;;;5100513;28;20436;-90
2022/06/13 03:05:54;;;;;;;7.47;3.50;;;14.30;99.90;;;;;;5103754;28;20837;-90
2022/06/13 03:08:43;;;;;;;9.03;3.70;;;14.30;99.90;;;;;;5101663;28;20462;-90
2022/06/13 03:11:25;;;;;;;11.10;3.90;;;14.30;99.90;;;;;;5091890;28;20432;-90
2022/06/13 03:14:03;;;;;;;9.90;4.27;;;14.20;99.90;;;;;;5106297;28;20465;-91
2022/06/13 03:16:34;;;;;;;4.47;3.20;;;14.20;99.90;;;;;;5100312;28;20467;-90
2022/06/13 03:19:17;;;;;;;4.97;3.00;;;14.10;99.90;;;;;;5098188;28;20433;-90
2022/06/13 03:21:50;;;;;;;4.50;3.63;;;14.10;99.90;;;;;;5103634;28;20478;-90
2022/06/13 03:24:20;;;;;;;3.30;3.10;;;14.10;99.90;;;;;;5102246;28;20447;-90
2022/06/13 03:26:53;;;;;;;5.37;3.13;;;14.10;99.90;;;;;;5105498;28;20467;-90
2022/06/13 03:29:27;;;;;;;7.53;3.23;;;14.00;99.90;;;;;;5105829;28;20802;-91
2022/06/13 03:31:58;;;;;;;3.33;2.73;;;14.00;99.90;;;;;;5103063;28;20450;-90
2022/06/13 03:34:29;;;;;;;7.33;3.93;;;14.00;99.90;;;;;;5099995;28;20438;-91
2022/06/13 03:37:02;;;;;;;12.17;3.87;;;13.90;99.90;;;;;;5104268;28;20461;-90
2022/06/13 03:39:36;;;;;;;3.97;2.90;;;14.00;99.90;;;;;;5103405;28;20473;-90
2022/06/13 03:42:10;;;;;;;13.23;2.93;;;13.90;99.90;;;;;;5109530;28;20467;-90
2022/06/13 03:44:43;;;;;;;6.80;3.10;;;13.90;99.90;;;;;;5108451;28;20450;-90
2022/06/13 03:47:18;;;;;;;3.33;3.03;;;13.90;99.90;;;;;;5107397;28;20471;-91
2022/06/13 03:49:49;;;;;;;6.53;3.57;;;13.80;99.90;;;;;;5108009;28;20450;-90
2022/06/13 03:52:18;;;;;;;8.43;3.20;;;13.90;99.90;;;;;;5112544;28;20446;-92
2022/06/13 03:54:50;;;;;;;12.23;3.70;;;13.90;99.90;;;;;;5111636;28;20788;-91
2022/06/13 03:57:23;;;;;;;7.00;3.30;;;13.80;99.90;;;;;;5124310;28;20851;-89
2022/06/13 03:59:56;;;;;;;8.80;3.17;;;13.90;99.90;;;;;;5128865;28;20461;-90
2022/06/13 04:02:28;;;;;;;7.07;3.17;;;13.90;99.90;;;;;;5111064;28;20474;-91
2022/06/13 04:04:55;;;;;;;4.60;3.20;;;13.90;99.90;;;;;;5109202;28;20447;-90
2022/06/13 04:07:25;;;;;;;3.63;3.00;;;13.90;99.90;;;;;;5112359;28;20453;-91
2022/06/13 04:09:55;;;;;;;14.40;4.10;;;14.00;99.90;;;;;;5121298;28;20512;-91
2022/06/13 04:12:33;;;;;;;4.40;3.20;;;14.00;99.90;;;;;;5120849;28;20455;-90
2022/06/13 04:15:15;;;;;;;8.20;3.37;;;14.00;99.90;;;;;;5121016;28;20435;-91
2022/06/13 04:17:52;;;;;;;9.00;3.07;;;14.00;99.90;;;;;;5120870;28;20442;-90
2022/06/13 04:20:29;;;;;;;5.30;3.20;;;14.10;99.90;;;;;;5117367;28;20454;-91
2022/06/13 04:23:02;;;;;;;7.90;3.30;;;14.10;99.90;;;;;;5106117;28;20481;-90
2022/06/13 04:25:34;;;;;;;5.90;3.43;;;14.20;99.90;;;;;;5104520;28;20557;-90
2022/06/13 04:28:07;;;;;;;7.60;3.50;;;14.20;99.90;;;;;;5104196;28;20453;-90
2022/06/13 04:30:37;;;;;;;4.70;3.20;;;14.30;99.90;;;;;;5112679;28;20453;-90
2022/06/13 04:33:09;;;;;;;5.30;3.20;;;14.30;99.90;;;;;;5114376;28;20455;-89
2022/06/13 04:35:37;;;;;;;9.77;3.30;;;14.30;99.90;;;;;;5110517;28;20471;-90
2022/06/13 04:38:10;;;;;;;6.97;2.60;;;14.40;99.90;;;;;;5123595;28;20823;-89
2022/06/13 04:40:40;;;;;;;3.27;2.87;;;14.40;99.90;;;;;;5111214;28;20425;-90
2022/06/13 04:43:10;;;;;;;9.87;3.03;;;14.50;99.90;;;;;;5111001;28;20482;-90
2022/06/13 04:45:46;;;;;;;10.60;3.10;;;14.50;99.90;;;;;;5110573;28;20511;-90
2022/06/13 04:48:13;;;;;;;3.40;2.70;;;14.60;99.90;;;;;;5133294;28;20449;-90
2022/06/13 04:50:44;;;;;;;7.13;3.10;;;14.60;99.90;;;;;;5112756;28;20453;-89
2022/06/13 04:53:18;;;;;;;5.70;3.43;;;14.80;99.90;;;;;;5106905;28;20455;-87
2022/06/13 04:55:47;;;;;;;3.93;2.93;;;14.90;99.90;;;;;;5099532;28;20506;-90
2022/06/13 04:58:30;;;;;;;8.00;3.10;;;15.00;99.90;;;;;;5103331;28;20421;-91
2022/06/13 05:01:03;;;;;;;12.80;3.30;;;15.10;99.90;;;;;;5102582;28;20806;-89
2022/06/13 05:03:33;;;;;;;7.03;3.17;;;15.30;99.90;;;;;;5103730;28;21257;-90
2022/06/13 05:06:03;;;;;;;6.50;3.63;;;15.50;99.90;;;;;;5106083;28;20466;-90
2022/06/13 05:08:40;;;;;;;5.20;3.43;;;15.50;99.90;;;;;;5105987;28;20422;-90
2022/06/13 05:11:12;;;;;;;6.57;4.33;;;15.60;99.90;;;;;;5110717;28;20457;-89
2022/06/13 05:13:39;;;;;;;4.33;2.80;;;15.60;99.90;;;;;;5106329;28;20454;-88
2022/06/13 05:16:17;;;;;;;3.70;2.90;;;15.60;99.90;;;;;;5104342;28;20475;-89
2022/06/13 05:19:04;;;;;;;5.30;3.27;;;15.50;99.90;;;;;;5102983;28;20450;-90
2022/06/13 05:21:43;;;;;;;6.77;2.93;;;15.60;99.90;;;;;;5098752;28;20474;-91
2022/06/13 05:24:36;;;;;;;5.93;3.27;;;15.40;99.90;;;;;;5099819;28;20448;-90
2022/06/13 05:27:06;;;;;;;5.97;3.20;;;15.50;99.90;;;;;;5106753;28;20463;-88
2022/06/13 05:29:34;;;;;;;18.47;3.80;;;15.50;99.90;;;;;;5104079;28;20429;-90
2022/06/13 05:32:01;;;;;;;10.20;2.90;;;15.50;99.90;;;;;;5108656;28;20459;-90
2022/06/13 05:34:33;;;;;;;8.10;3.10;;;15.50;99.90;;;;;;5103548;28;20431;-90
2022/06/13 05:37:01;;;;;;;7.63;3.53;;;15.50;99.90;;;;;;5113756;28;20437;-91
2022/06/13 05:39:30;;;;;;;7.30;3.17;;;15.60;99.90;;;;;;5108084;28;20475;-89
2022/06/13 05:41:57;;;;;;;9.90;3.40;;;15.60;99.90;;;;;;5108388;28;20973;-90
2022/06/13 05:44:24;;;;;;;6.67;3.37;;;15.60;99.90;;;;;;5104430;28;20431;-90
2022/06/13 05:46:51;;;;;;;7.53;4.03;;;15.60;99.90;;;;;;5105628;28;20491;-88
2022/06/13 05:49:18;;;;;;;4.60;3.40;;;15.70;99.90;;;;;;5105103;28;20422;-90
2022/06/13 05:51:46;;;;;;;4.47;3.10;;;15.70;99.90;;;;;;5104507;28;20443;-90
2022/06/13 05:54:14;;;;;;;6.03;3.67;;;15.70;99.90;;;;;;5106939;28;20498;-90
2022/06/13 05:56:42;;;;;;;7.30;3.30;;;15.80;99.90;;;;;;5105438;28;20481;-89
2022/06/13 05:59:09;;;;;;;10.77;3.67;;;15.80;99.90;;;;;;5104975;28;20512;-89
2022/06/13 06:01:36;;;;;;;8.93;3.17;;;15.80;99.90;;;;;;5118803;28;20436;-90
2022/06/13 06:04:03;;;;;;;5.03;3.73;;;15.90;99.90;;;;;;5106055;28;20936;-90
2022/06/13 06:06:32;;;;;;;4.73;3.63;;;15.90;99.90;;;;;;5108202;28;20453;-90
2022/06/13 06:08:59;;;;;;;11.13;3.47;;;15.90;99.90;;;;;;5109052;28;20428;-90
2022/06/13 06:11:28;;;;;;;7.90;3.03;;;16.00;99.90;;;;;;5108467;28;20426;-91
2022/06/13 06:13:56;;;;;;;3.20;2.90;;;16.20;99.90;;;;;;5110099;28;20461;-88
2022/06/13 06:16:26;;;;;;;6.43;2.97;;;16.40;99.90;;;;;;5110037;28;20468;-90
2022/06/13 06:18:53;;;;;;;5.10;3.30;;;16.70;99.90;;;;;;5099510;28;20425;-88
2022/06/13 06:21:20;;;;;;;9.53;3.37;;;17.00;99.90;;;;;;5115146;28;20453;-90
2022/06/13 06:23:47;;;;;;;9.57;3.60;;;17.20;99.90;;;;;;5108233;28;20440;-90
2022/06/13 06:26:16;;;;;;;9.30;3.97;;;17.30;99.90;;;;;;5101322;28;20818;-91
2022/06/13 06:28:43;;;;;;;11.07;3.33;;;17.30;99.90;;;;;;5097111;28;20791;-90
2022/06/13 06:31:12;;;;;;;7.63;2.93;;;17.50;99.90;;;;;;5107696;28;20439;-89
2022/06/13 06:33:38;;;;;;;7.40;3.50;;;17.50;99.90;;;;;;5108185;28;20798;-90
2022/06/13 06:36:06;;;;;;;6.00;2.83;;;17.50;99.90;;;;;;5100513;28;20478;-89
2022/06/13 06:38:32;;;;;;;8.00;3.10;;;17.50;99.90;;;;;;5111015;28;20424;-90
2022/06/13 06:40:59;;;;;;;12.00;4.10;;;17.50;99.90;;;;;;5105574;28;20430;-89
2022/06/13 06:43:26;;;;;;;9.63;3.13;;;17.80;99.90;;;;;;5099132;28;20478;-89
2022/06/13 06:45:53;;;;;;;8.33;3.70;;;18.10;99.90;;;;;;5097457;28;20453;-88
2022/06/13 06:48:24;;;;;;;8.40;3.13;;;18.20;99.90;;;;;;5100913;28;20462;-90
2022/06/13 06:50:51;;;;;;;5.20;3.37;;;18.40;99.90;;;;;;5102381;28;20421;-89
2022/06/13 06:53:21;;;;;;;9.67;3.43;;;18.70;99.90;;;;;;5106859;28;20431;-88
2022/06/13 07:01:19;;;;;;;6.87;2.70;;;19.30;99.90;;;;;;5091849;28;20809;-88
2022/06/13 07:03:47;;;;;;;8.17;3.33;;;19.40;99.90;;;;;;5099614;28;20849;-90
2022/06/13 07:06:15;;;;;;;11.33;4.00;;;19.70;99.90;;;;;;5113791;28;20462;-90
2022/06/13 07:08:43;;;;;;;11.10;3.80;;;19.80;99.90;;;;;;5098708;28;20462;-89
2022/06/13 07:14:01;;;;;;;10.73;4.07;;;20.10;99.90;;;;;;5098275;28;20431;-89
2022/06/13 07:16:28;;;;;;;6.40;3.53;;;20.30;99.90;;;;;;5102461;28;20466;-90
2022/06/13 07:18:56;;;;;;;7.10;3.40;;;20.30;99.90;;;;;;5102943;28;20461;-87
2022/06/13 07:21:23;;;;;;;7.97;3.70;;;20.60;99.90;;;;;;5102515;28;20455;-88
2022/06/13 07:23:50;;;;;;;8.67;3.60;;;20.70;99.90;;;;;;5105779;28;20921;-91
2022/06/13 07:26:17;;;;;;;10.37;3.30;;;20.70;99.90;;;;;;5103566;28;20985;-91
2022/06/13 07:28:43;;;;;;;6.53;3.20;;;20.90;99.90;;;;;;5102982;28;20488;-90
2022/06/13 07:31:18;;;;;;;8.30;3.03;;;21.00;99.90;;;;;;5103212;28;20459;-90
2022/06/13 07:33:45;;;;;;;8.17;3.37;;;20.90;99.90;;;;;;5099449;28;20457;-88
2022/06/13 07:36:13;;;;;;;8.50;3.23;;;20.80;99.90;;;;;;5118385;28;20461;-89
2022/06/13 07:38:40;;;;;;;8.17;3.10;;;20.70;99.90;;;;;;5102499;28;20446;-87
2022/06/13 07:41:07;;;;;;;6.73;3.07;;;20.50;99.90;;;;;;5102045;28;20431;-85
2022/06/13 07:43:36;;;;;;;7.60;3.10;;;20.30;99.90;;;;;;5103734;28;20869;-87
2022/06/13 07:46:05;;;;;;;7.90;2.80;;;20.20;99.90;;;;;;5097433;28;20490;-87
2022/06/13 07:48:33;;;;;;;6.57;2.70;;;20.10;99.90;;;;;;5102914;28;20496;-87
2022/06/13 07:51:01;;;;;;;4.67;2.80;;;20.00;99.90;;;;;;5111940;28;20454;-87
2022/06/13 07:53:29;;;;;;;9.63;2.70;;;20.00;99.90;;;;;;5106962;28;20439;-87
2022/06/13 07:55:57;;;;;;;11.50;2.50;;;20.10;99.90;;;;;;5107390;28;20441;-89
2022/06/13 07:58:31;;;;;;;11.37;3.00;;;20.10;99.90;;;;;;5112785;28;20505;-86
2022/06/13 08:00:58;;;;;;;9.47;3.30;;;20.20;99.90;;;;;;5106066;28;20442;-86
2022/06/13 08:03:29;;;;;;;10.37;3.40;;;20.30;99.90;;;;;;5109855;28;20904;-89
2022/06/13 08:05:57;;;;;;;9.07;3.47;;;20.20;99.90;;;;;;5107823;28;20553;-89
2022/06/13 08:08:25;;;;;;;10.33;3.10;;;20.10;99.90;;;;;;5109027;28;20461;-86
2022/06/13 08:10:55;;;;;;;8.63;3.07;;;20.00;99.90;;;;;;5107935;28;20451;-88
2022/06/13 08:13:23;;;;;;;10.80;3.33;;;20.00;99.90;;;;;;5114584;28;20442;-88
2022/06/13 08:15:51;;;;;;;8.63;3.43;;;20.00;99.90;;;;;;5114726;28;20467;-89
2022/06/13 08:18:18;;;;;;;7.60;3.30;;;20.00;99.90;;;;;;5112973;28;20438;-88
2022/06/13 08:20:46;;;;;;;5.03;3.30;;;20.10;99.90;;;;;;5109667;28;20434;-89
2022/06/13 08:23:15;;;;;;;10.10;3.60;;;20.20;99.90;;;;;;5104108;28;20539;-85
2022/06/13 08:25:42;;;;;;;8.10;3.30;;;20.10;99.90;;;;;;5106460;28;20455;-86
2022/06/13 08:28:13;;;;;;;7.70;3.10;;;19.90;99.90;;;;;;5107772;28;20446;-87
2022/06/13 08:30:46;;;;;;;7.70;3.20;;;20.00;99.90;;;;;;5104556;28;20931;-85
2022/06/13 08:33:13;;;;;;;9.90;3.33;;;20.10;99.90;;;;;;5106484;28;20451;-86
2022/06/13 08:35:41;;;;;;;11.43;3.17;;;20.20;99.90;;;;;;5100658;28;20473;-86
2022/06/13 08:38:08;;;;;;;8.57;3.50;;;20.30;99.90;;;;;;5097280;28;20451;-88
2022/06/13 08:40:42;;;;;;;10.07;3.43;;;20.40;99.90;;;;;;5117524;28;20429;-88
2022/06/13 08:43:30;;;;;;;6.77;3.43;;;20.40;99.90;;;;;;5112397;28;20470;-89
2022/06/13 08:46:03;;;;;;;10.00;3.23;;;20.40;99.90;;;;;;5109699;28;20467;-89
2022/06/13 08:48:36;;;;;;;8.20;3.13;;;20.40;99.90;;;;;;5134759;28;20434;-88
2022/06/13 08:51:10;;;;;;;7.60;2.60;;;20.40;99.90;;;;;;5140868;28;20464;-88
2022/06/13 08:53:43;;;;;;;7.43;3.40;;;20.40;99.90;;;;;;5116726;28;20468;-88
2022/06/13 08:56:13;;;;;;;9.30;3.90;;;20.40;99.90;;;;;;5100308;28;20463;-88
2022/06/13 08:58:46;;;;;;;10.27;3.70;;;20.60;99.90;;;;;;5097188;28;20436;-88
2022/06/13 09:01:17;;;;;;;11.00;3.13;;;21.10;99.90;;;;;;5102148;28;20447;-88
2022/06/13 09:03:50;;;;;;;5.93;3.10;;;21.40;99.90;;;;;;5113314;28;20498;-88
2022/06/13 09:06:22;;;;;;;10.67;4.17;;;21.40;99.90;;;;;;5102678;28;20497;-88
2022/06/13 09:08:55;;;;;;;8.30;3.10;;;21.40;99.90;;;;;;5106290;28;20451;-89
2022/06/13 09:11:27;;;;;;;7.40;3.70;;;21.50;99.90;;;;;;5105073;28;20431;-89
2022/06/13 09:14:03;;;;;;;7.07;3.47;;;21.60;99.90;;;;;;5106813;28;20511;-88
2022/06/13 09:16:33;;;;;;;13.83;4.20;;;21.60;99.90;;;;;;5106389;28;20466;-88
2022/06/13 09:19:05;;;;;;;6.10;2.93;;;21.50;99.90;;;;;;5108238;28;20526;-89
2022/06/13 09:21:38;;;;;;;8.20;2.90;;;21.80;99.90;;;;;;5116632;28;20447;-88
2022/06/13 09:24:13;;;;;;;5.77;2.80;;;22.20;99.90;;;;;;5106879;28;20481;-89
2022/06/13 09:26:47;;;;;;;9.50;3.30;;;22.50;99.90;;;;;;5100223;28;20481;-88
2022/06/13 09:29:22;;;;;;;9.17;3.00;;;22.70;99.90;;;;;;5106260;28;20947;-88
2022/06/13 09:31:57;;;;;;;7.13;3.23;;;23.00;99.90;;;;;;5121421;28;20480;-90
2022/06/13 09:34:31;;;;;;;9.60;3.67;;;23.30;99.90;;;;;;5111212;28;20453;-90
2022/06/13 09:37:05;;;;;;;8.70;2.77;;;23.70;99.90;;;;;;5106740;28;20526;-88
2022/06/13 09:39:32;;;;;;;6.67;3.20;;;23.90;99.90;;;;;;5107799;28;20447;-91
2022/06/13 09:42:10;;;;;;;6.67;3.20;;;23.90;99.90;;;;;;5107151;28;20455;-89
2022/06/13 09:45:08;;;;;;;7.10;3.80;;;24.20;99.90;;;;;;5105767;28;20840;-90
2022/06/13 09:47:42;;;;;;;5.70;2.77;;;24.40;99.90;;;;;;5106380;28;20459;-89
2022/06/13 09:50:20;;;;;;;7.27;3.23;;;24.30;99.90;;;;;;5106144;28;20446;-87
2022/06/13 09:52:54;;;;;;;7.10;3.70;;;23.80;99.90;;;;;;5092220;28;20447;-85
2022/06/13 09:55:27;;;;;;;6.93;3.30;;;23.50;99.90;;;;;;5098709;28;20465;-86
2022/06/13 09:58:05;;;;;;;13.40;4.10;;;23.30;99.90;;;;;;5102775;28;20466;-88
2022/06/13 10:00:40;;;;;;;7.97;3.30;;;22.70;99.90;;;;;;5101271;28;20452;-88
2022/06/13 10:03:16;;;;;;;10.77;3.73;;;22.30;99.90;;;;;;5104181;28;21008;-88
2022/06/13 10:05:47;;;;;;;10.77;4.27;;;22.00;99.90;;;;;;5102528;28;20470;-86
2022/06/13 10:08:36;;;;;;;9.30;3.83;;;21.80;99.90;;;;;;5104789;28;20451;-89
2022/06/13 10:11:09;;;;;;;5.97;3.43;;;21.80;99.90;;;;;;5109499;28;20451;-88
2022/06/13 10:13:46;;;;;;;7.63;3.67;;;22.10;99.90;;;;;;5113287;28;20472;-87
2022/06/13 10:16:25;;;;;;;15.20;4.20;;;22.50;99.90;;;;;;5112646;28;20462;-89
2022/06/13 10:19:06;;;;;;;7.93;3.53;;;23.00;99.90;;;;;;5108293;28;20460;-87
2022/06/13 10:21:38;;;;;;;10.63;4.27;;;22.80;99.90;;;;;;5111661;28;20461;-90
2022/06/13 10:24:18;;;;;;;10.17;3.83;;;22.30;99.90;;;;;;5107772;28;20478;-87
2022/06/13 10:26:51;;;;;;;6.70;3.77;;;21.90;99.90;;;;;;5102300;28;21009;-88
2022/06/13 10:29:39;;;;;;;13.83;4.13;;;21.40;99.90;;;;;;5104695;28;20458;-89
2022/06/13 10:32:46;;;;;;;10.27;4.33;;;21.30;99.90;;;;;;5106275;28;20453;-90
2022/06/13 10:35:28;;;;;;;12.27;3.93;;;21.10;99.90;;;;;;5125303;28;20460;-90
2022/06/13 10:38:10;;;;;;;7.20;3.90;;;21.00;99.90;;;;;;5114127;28;20518;-92
2022/06/13 10:43:26;;;;;;;6.67;4.47;;;21.80;99.90;;;;;;5106014;28;20471;-90
2022/06/13 10:45:53;;;;;;;10.90;4.03;;;22.30;99.90;;;;;;5102465;28;20498;-90
2022/06/13 10:48:30;;;;;;;7.87;3.43;;;22.40;99.90;;;;;;5105048;28;20459;-90
2022/06/13 10:50:59;;;;;;;10.70;4.37;;;22.20;99.90;;;;;;5103464;28;20451;-90
2022/06/13 10:53:39;;;;;;;9.30;4.40;;;22.10;99.90;;;;;;5102555;28;20462;-89
2022/06/13 10:56:11;;;;;;;5.70;3.70;;;21.90;99.90;;;;;;5104360;28;20493;-88
2022/06/13 11:01:28;;;;;;;7.70;4.20;;;21.40;99.90;;;;;;5106582;28;20469;-89
2022/06/13 11:04:24;;;;;;;9.40;4.67;;;21.10;99.90;;;;;;5107124;28;20478;-89
2022/06/13 11:06:55;;;;;;;12.83;4.90;;;20.90;99.90;;;;;;5105072;28;20573;-89
2022/06/13 11:09:32;;;;;;;9.03;4.40;;;20.80;99.90;;;;;;5104988;28;20480;-90
2022/06/13 11:12:03;;;;;;;10.57;4.30;;;20.90;99.90;;;;;;5108147;28;20437;-93
2022/06/13 11:22:37;;;;;;;8.80;3.57;;;21.30;99.90;;;;;;5120135;28;20449;-90
2022/06/13 11:23:58;;;;;;;9.23;4.40;;;22.10;99.90;;;;;;5063482;28;20562;-91
2022/06/13 11:29:16;;;;;;;9.17;3.90;;;22.10;99.90;;;;;;5126267;28;20401;-89
2022/06/13 11:31:50;;;;;;;7.83;4.00;;;22.50;99.90;;;;;;5115314;28;20513;-89
2022/06/13 11:34:25;;;;;;;12.83;4.30;;;23.10;99.90;;;;;;5115170;28;20454;-89
2022/06/13 11:37:02;;;;;;;9.77;3.90;;;23.50;99.90;;;;;;5105237;28;20479;-88
2022/06/13 11:39:39;;;;;;;9.00;4.60;;;24.10;99.90;;;;;;5108033;28;20506;-86
2022/06/13 11:42:17;;;;;;;6.53;3.60;;;24.20;99.90;;;;;;5107293;28;20482;-86
2022/06/13 11:44:49;;;;;;;6.57;3.90;;;24.30;99.90;;;;;;5106159;28;20482;-89
2022/06/13 11:47:18;;;;;;;10.73;3.90;;;24.10;99.90;;;;;;5104297;28;20463;-89
2022/06/13 11:49:47;;;;;;;11.07;3.77;;;23.70;99.90;;;;;;5102790;28;20455;-89
2022/06/13 11:55:27;;;;;;;10.37;3.80;;;22.70;99.90;;;;;;5098842;28;20771;-88
2022/06/13 11:57:56;;;;;;;11.33;4.20;;;22.50;99.90;;;;;;5092690;28;20530;-89
2022/06/13 12:00:37;;;;;;;8.37;3.60;;;22.80;99.90;;;;;;5108095;28;20455;-89
2022/06/13 12:03:23;;;;;;;8.23;3.63;;;23.20;99.90;;;;;;5110752;28;20518;-88
2022/06/13 12:05:58;;;;;;;11.70;4.33;;;23.00;99.90;;;;;;5111616;28;20474;-88
2022/06/13 12:08:31;;;;;;;11.63;3.80;;;23.00;99.90;;;;;;5108784;28;21120;-87
2022/06/13 12:11:01;;;;;;;7.10;3.90;;;23.50;99.90;;;;;;5108576;28;20442;-88
2022/06/13 12:13:31;;;;;;;11.80;4.20;;;24.10;99.90;;;;;;5116266;28;20506;-87
2022/06/13 12:16:04;;;;;;;14.30;4.83;;;24.60;99.90;;;;;;5110568;28;20470;-90
2022/06/13 12:18:40;;;;;;;8.37;4.13;;;24.70;99.90;;;;;;5109423;28;20441;-91
2022/06/13 12:21:18;;;;;;;9.00;4.97;;;24.60;99.90;;;;;;5110059;28;21007;-89
2022/06/13 12:23:50;;;;;;;8.33;4.33;;;24.10;99.90;;;;;;5105255;28;20524;-87
2022/06/13 12:26:25;;;;;;;12.67;5.03;;;23.90;99.90;;;;;;5097121;28;20471;-89
2022/06/13 12:29:01;;;;;;;7.90;4.80;;;23.60;99.90;;;;;;5101440;28;20446;-88
2022/06/13 12:31:38;;;;;;;12.43;4.60;;;23.80;99.90;;;;;;5110511;28;20437;-88
2022/06/13 12:34:16;;;;;;;7.33;4.50;;;23.80;99.90;;;;;;5091638;28;20455;-89
2022/06/13 12:36:57;;;;;;;17.23;5.00;;;24.00;99.90;;;;;;5097344;28;20470;-89
2022/06/13 12:39:42;;;;;;;33.60;19.73;;;24.40;99.90;;;;;;5101906;28;20451;-88
2022/06/13 12:42:20;;;;;;;15.07;4.20;;;24.90;99.20;;;;;;5107812;28;20523;-90
2022/06/13 12:45:25;;;;;;;10.30;4.47;;;25.00;98.70;;;;;;5107714;28;20425;-89
2022/06/13 12:48:05;;;;;;;9.10;5.33;;;25.20;98.60;;;;;;5116722;28;20473;-89
2022/06/13 12:50:41;;;;;;;10.53;4.90;;;25.10;97.20;;;;;;5115172;28;20537;-88
2022/06/13 12:53:28;;;;;;;7.43;4.73;;;24.90;97.50;;;;;;5108024;28;20450;-88
2022/06/13 12:56:05;;;;;;;13.23;7.50;;;24.80;98.10;;;;;;5107167;28;20462;-88
2022/06/13 12:59:11;;;;;;;10.43;5.50;;;24.90;96.60;;;;;;5108335;28;20470;-89
2022/06/13 13:01:46;;;;;;;10.30;4.73;;;24.70;95.50;;;;;;5097244;28;20447;-89
2022/06/13 13:04:38;;;;;;;8.07;5.00;;;24.80;95.90;;;;;;5102210;28;20480;-87
2022/06/13 13:07:09;;;;;;;7.80;4.53;;;25.00;94.20;;;;;;5106178;28;20481;-90
2022/06/13 13:09:53;;;;;;;6.60;4.50;;;25.20;93.60;;;;;;5107960;28;20580;-90
2022/06/13 13:12:45;;;;;;;10.67;5.10;;;25.20;94.50;;;;;;5110051;28;21008;-90
2022/06/13 13:15:18;;;;;;;8.67;4.40;;;25.30;93.80;;;;;;5118604;28;20452;-89
2022/06/13 13:17:53;;;;;;;6.10;4.57;;;25.20;94.40;;;;;;5133703;28;20457;-90
2022/06/13 13:20:27;;;;;;;10.43;4.40;;;25.30;94.70;;;;;;5109111;28;20470;-92
2022/06/13 13:23:02;;;;;;;9.77;4.40;;;25.30;95.60;;;;;;5104308;28;20455;-89
2022/06/13 13:25:37;;;;;;;7.13;4.07;;;25.40;95.00;;;;;;5113894;28;20508;-91
2022/06/13 13:28:17;;;;;;;14.23;4.50;;;25.40;94.70;;;;;;5111070;28;20453;-90
2022/06/13 13:30:55;;;;;;;11.33;4.20;;;25.20;94.70;;;;;;5111074;28;20443;-90
2022/06/13 13:33:51;;;;;;;11.43;4.18;;;25.10;95.80;;;;;;5106100;28;20437;-90
2022/06/13 13:36:27;;;;;;;8.40;4.30;;;25.10;95.10;;;;;;5108781;28;20225;-88
2022/06/13 13:38:57;;;;;;;11.60;4.70;;;25.00;95.10;;;;;;5105076;28;20447;-88
2022/06/13 13:41:32;;;;;;;9.03;4.27;;;24.90;95.10;;;;;;5106337;28;20472;-90
2022/06/13 13:44:04;;;;;;;8.40;4.50;;;25.00;95.70;;;;;;5101493;28;20481;-87